sensor_id;sensor_type;location;lat;lon;timestamp;pressure;altitude;pressure_sealevel;temperature;humidity
7075;BME280;3578;51.568;6.932;2023-06-26T00:02:20;55411.19;;;-144.14;100.00
7075;BME280;3578;51.568;6.932;2023-06-26T00:04:47;55431.22;;;-144.14;100.00
7075;BME280;3578;51.568;6.932;2023-06-26T00:07:14;55399.13;;;-144.14;100.00
7075;BME280;3578;51.568;6.932;2023-06-26T00:09:41;55407.16;;;-144.14;100.00
7075;BME280;3578;51.568;6.932;2023-06-26T00:12:09;55429.22;;;-144.14;100.00
7075;BME280;3578;51.568;6.932;2023-06-26T00:14:36;55407.16;;;-144.14;100.00
7075;BME280;3578;51.568;6.932;2023-06-26T00:17:03;55405.16;;;-144.14;100.00
7075;BME280;3578;51.568;6.932;2023-06-26T00:19:32;55379.09;;;-144.14;100.00
7075;BME280;3578;51.568;6.932;2023-06-26T00:21:59;55433.22;;;-144.14;100.00
7075;BME280;3578;51.568;6.932;2023-06-26T00:24:26;55443.25;;;-144.14;100.00
7075;BME280;3578;51.568;6.932;2023-06-26T00:26:53;55427.22;;;-144.14;100.00
7075;BME280;3578;51.568;6.932;2023-06-26T00:29:20;55389.13;;;-144.14;100.00
7075;BME280;3578;51.568;6.932;2023-06-26T00:31:47;55439.25;;;-144.14;100.00
7075;BME280;3578;51.568;6.932;2023-06-26T00:34:15;55407.16;;;-144.14;100.00
7075;BME280;3578;51.568;6.932;2023-06-26T00:36:43;55407.16;;;-144.14;100.00
7075;BME280;3578;51.568;6.932;2023-06-26T00:39:10;55429.22;;;-144.14;100.00
7075;BME280;3578;51.568;6.932;2023-06-26T00:41:37;55393.13;;;-144.14;100.00
7075;BME280;3578;51.568;6.932;2023-06-26T00:44:05;55343.00;;;-144.14;100.00
7075;BME280;3578;51.568;6.932;2023-06-26T00:46:33;55306.91;;;-144.14;100.00
7075;BME280;3578;51.568;6.932;2023-06-26T00:49:03;55292.84;;;-144.14;100.00
7075;BME280;3578;51.568;6.932;2023-06-26T00:51:31;55244.72;;;-144.14;100.00
7075;BME280;3578;51.568;6.932;2023-06-26T00:54:00;55371.06;;;-144.14;100.00
7075;BME280;3578;51.568;6.932;2023-06-26T00:56:28;55359.03;;;-144.14;100.00
7075;BME280;3578;51.568;6.932;2023-06-26T00:58:55;55345.00;;;-144.14;100.00
7075;BME280;3578;51.568;6.932;2023-06-26T01:01:22;55330.97;;;-144.14;100.00
7075;BME280;3578;51.568;6.932;2023-06-26T01:03:52;55290.84;;;-144.14;100.00
7075;BME280;3578;51.568;6.932;2023-06-26T01:06:21;55230.69;;;-144.14;100.00
7075;BME280;3578;51.568;6.932;2023-06-26T01:08:50;55296.88;;;-144.14;100.00
7075;BME280;3578;51.568;6.932;2023-06-26T01:11:20;55310.91;;;-144.14;100.00
7075;BME280;3578;51.568;6.932;2023-06-26T01:13:47;55286.84;;;-144.14;100.00
7075;BME280;3578;51.568;6.932;2023-06-26T01:16:16;55336.97;;;-144.14;100.00
7075;BME280;3578;51.568;6.932;2023-06-26T01:18:46;55314.91;;;-144.14;100.00
7075;BME280;3578;51.568;6.932;2023-06-26T01:21:14;55286.84;;;-144.14;100.00
7075;BME280;3578;51.568;6.932;2023-06-26T01:23:56;55234.72;;;-144.14;100.00
7075;BME280;3578;51.568;6.932;2023-06-26T01:26:29;55182.56;;;-144.14;100.00
7075;BME280;3578;51.568;6.932;2023-06-26T01:28:58;55182.56;;;-144.14;100.00
7075;BME280;3578;51.568;6.932;2023-06-26T01:31:27;55164.53;;;-144.14;100.00
7075;BME280;3578;51.568;6.932;2023-06-26T01:33:57;55090.31;;;-144.14;100.00
7075;BME280;3578;51.568;6.932;2023-06-26T01:36:25;55106.38;;;-144.14;100.00
7075;BME280;3578;51.568;6.932;2023-06-26T01:38:53;55086.31;;;-144.14;100.00
7075;BME280;3578;51.568;6.932;2023-06-26T01:41:20;55116.41;;;-144.14;100.00
7075;BME280;3578;51.568;6.932;2023-06-26T01:44:03;55106.38;;;-144.14;100.00
7075;BME280;3578;51.568;6.932;2023-06-26T01:46:39;55114.38;;;-144.14;100.00
7075;BME280;3578;51.568;6.932;2023-06-26T01:49:12;55102.34;;;-144.14;100.00
7075;BME280;3578;51.568;6.932;2023-06-26T01:51:47;55070.28;;;-144.14;100.00
7075;BME280;3578;51.568;6.932;2023-06-26T01:54:18;55094.34;;;-144.14;100.00
7075;BME280;3578;51.568;6.932;2023-06-26T01:56:50;55112.38;;;-144.14;100.00
7075;BME280;3578;51.568;6.932;2023-06-26T01:59:21;55076.28;;;-144.14;100.00
7075;BME280;3578;51.568;6.932;2023-06-26T02:01:48;55080.31;;;-144.14;100.00
7075;BME280;3578;51.568;6.932;2023-06-26T02:04:15;55092.34;;;-144.14;100.00
7075;BME280;3578;51.568;6.932;2023-06-26T02:06:42;55070.28;;;-144.14;100.00
7075;BME280;3578;51.568;6.932;2023-06-26T02:09:09;55048.22;;;-144.14;100.00
7075;BME280;3578;51.568;6.932;2023-06-26T02:11:36;55084.31;;;-144.14;100.00
7075;BME280;3578;51.568;6.932;2023-06-26T02:14:03;55138.44;;;-144.14;100.00
7075;BME280;3578;51.568;6.932;2023-06-26T02:16:31;55116.41;;;-144.14;100.00
7075;BME280;3578;51.568;6.932;2023-06-26T02:18:58;55100.34;;;-144.14;100.00
7075;BME280;3578;51.568;6.932;2023-06-26T02:21:25;55080.31;;;-144.14;100.00
7075;BME280;3578;51.568;6.932;2023-06-26T02:23:52;55082.31;;;-144.14;100.00
7075;BME280;3578;51.568;6.932;2023-06-26T02:26:19;55068.28;;;-144.14;100.00
7075;BME280;3578;51.568;6.932;2023-06-26T02:28:46;55018.16;;;-144.14;100.00
7075;BME280;3578;51.568;6.932;2023-06-26T02:31:13;55060.25;;;-144.14;100.00
7075;BME280;3578;51.568;6.932;2023-06-26T02:33:43;55058.25;;;-144.14;100.00
7075;BME280;3578;51.568;6.932;2023-06-26T02:36:11;55062.25;;;-144.14;100.00
7075;BME280;3578;51.568;6.932;2023-06-26T02:38:38;55036.19;;;-144.14;100.00
7075;BME280;3578;51.568;6.932;2023-06-26T02:41:05;55066.25;;;-144.14;100.00
7075;BME280;3578;51.568;6.932;2023-06-26T02:43:31;55072.28;;;-144.14;100.00
7075;BME280;3578;51.568;6.932;2023-06-26T02:45:58;55050.22;;;-144.14;100.00
7075;BME280;3578;51.568;6.932;2023-06-26T02:48:25;55048.22;;;-144.14;100.00
7075;BME280;3578;51.568;6.932;2023-06-26T02:50:53;55054.25;;;-144.14;100.00
7075;BME280;3578;51.568;6.932;2023-06-26T02:53:20;55064.25;;;-144.14;100.00
7075;BME280;3578;51.568;6.932;2023-06-26T02:55:47;55048.22;;;-144.14;100.00
7075;BME280;3578;51.568;6.932;2023-06-26T02:58:14;55054.25;;;-144.14;100.00
7075;BME280;3578;51.568;6.932;2023-06-26T03:00:41;55078.28;;;-144.14;100.00
7075;BME280;3578;51.568;6.932;2023-06-26T03:03:09;55062.25;;;-144.14;100.00
7075;BME280;3578;51.568;6.932;2023-06-26T03:05:36;55040.19;;;-144.14;100.00
7075;BME280;3578;51.568;6.932;2023-06-26T03:08:05;55054.25;;;-144.14;100.00
7075;BME280;3578;51.568;6.932;2023-06-26T03:10:32;55070.28;;;-144.14;99.91
7075;BME280;3578;51.568;6.932;2023-06-26T03:12:59;55082.31;;;-144.14;98.90
7075;BME280;3578;51.568;6.932;2023-06-26T03:15:26;55122.41;;;-144.14;97.46
7075;BME280;3578;51.568;6.932;2023-06-26T03:17:53;55112.38;;;-144.14;94.51
7075;BME280;3578;51.568;6.932;2023-06-26T03:20:20;55144.47;;;-144.14;93.54
7075;BME280;3578;51.568;6.932;2023-06-26T03:22:47;55174.56;;;-144.14;92.94
7075;BME280;3578;51.568;6.932;2023-06-26T03:25:15;55202.63;;;-144.14;92.12
7075;BME280;3578;51.568;6.932;2023-06-26T03:27:42;55214.66;;;-144.14;91.84
7075;BME280;3578;51.568;6.932;2023-06-26T03:30:11;55232.69;;;-144.14;91.23
7075;BME280;3578;51.568;6.932;2023-06-26T03:32:38;55298.88;;;-144.14;90.77
7075;BME280;3578;51.568;6.932;2023-06-26T03:35:06;55270.81;;;-144.14;90.92
7075;BME280;3578;51.568;6.932;2023-06-26T03:37:33;55318.94;;;-144.14;91.11
7075;BME280;3578;51.568;6.932;2023-06-26T03:40:00;55278.81;;;-144.14;90.98
7075;BME280;3578;51.568;6.932;2023-06-26T03:42:28;55278.81;;;-144.14;91.50
7075;BME280;3578;51.568;6.932;2023-06-26T03:44:55;55296.88;;;-144.14;92.18
7075;BME280;3578;51.568;6.932;2023-06-26T03:47:22;55250.75;;;-144.14;92.54
7075;BME280;3578;51.568;6.932;2023-06-26T03:49:49;55248.75;;;-144.14;92.91
7075;BME280;3578;51.568;6.932;2023-06-26T03:52:16;55262.78;;;-144.14;93.10
7075;BME280;3578;51.568;6.932;2023-06-26T03:54:43;55288.84;;;-144.14;92.75
7075;BME280;3578;51.568;6.932;2023-06-26T03:57:10;55302.88;;;-144.14;92.73
7075;BME280;3578;51.568;6.932;2023-06-26T03:59:38;55298.88;;;-144.14;92.72
7075;BME280;3578;51.568;6.932;2023-06-26T04:02:05;55326.94;;;-144.14;93.29
7075;BME280;3578;51.568;6.932;2023-06-26T04:04:32;55351.00;;;-144.14;92.89
7075;BME280;3578;51.568;6.932;2023-06-26T04:06:59;55367.06;;;-144.14;92.73
7075;BME280;3578;51.568;6.932;2023-06-26T04:09:26;55435.25;;;-144.14;92.33
7075;BME280;3578;51.568;6.932;2023-06-26T04:11:53;55437.25;;;-144.14;91.79
7075;BME280;3578;51.568;6.932;2023-06-26T04:14:20;55449.28;;;-144.14;91.54
7075;BME280;3578;51.568;6.932;2023-06-26T04:16:48;55491.38;;;-144.14;90.75
7075;BME280;3578;51.568;6.932;2023-06-26T04:19:15;55511.44;;;-144.14;90.26
7075;BME280;3578;51.568;6.932;2023-06-26T04:21:42;55481.38;;;-144.14;89.96
7075;BME280;3578;51.568;6.932;2023-06-26T04:24:09;55531.50;;;-144.14;90.54
7075;BME280;3578;51.568;6.932;2023-06-26T04:26:37;55541.53;;;-144.14;90.71
7075;BME280;3578;51.568;6.932;2023-06-26T04:29:06;55535.50;;;-144.14;90.36
7075;BME280;3578;51.568;6.932;2023-06-26T04:31:33;55577.63;;;-144.14;89.95
7075;BME280;3578;51.568;6.932;2023-06-26T04:34:02;55519.47;;;-144.14;89.72
7075;BME280;3578;51.568;6.932;2023-06-26T04:36:29;55547.53;;;-144.14;89.99
7075;BME280;3578;51.568;6.932;2023-06-26T04:38:57;55537.50;;;-144.14;90.33
7075;BME280;3578;51.568;6.932;2023-06-26T04:41:24;55551.56;;;-144.14;89.90
7075;BME280;3578;51.568;6.932;2023-06-26T04:43:52;55563.59;;;-144.14;89.44
7075;BME280;3578;51.568;6.932;2023-06-26T04:46:18;55573.63;;;-144.14;88.78
7075;BME280;3578;51.568;6.932;2023-06-26T04:48:45;55579.63;;;-144.14;88.97
7075;BME280;3578;51.568;6.932;2023-06-26T04:51:14;55563.59;;;-144.14;88.60
7075;BME280;3578;51.568;6.932;2023-06-26T04:53:40;55591.66;;;-144.14;88.26
7075;BME280;3578;51.568;6.932;2023-06-26T04:56:07;55621.75;;;-144.14;88.37
7075;BME280;3578;51.568;6.932;2023-06-26T04:58:35;55601.69;;;-144.14;88.61
7075;BME280;3578;51.568;6.932;2023-06-26T05:01:02;55617.72;;;-144.14;88.76
7075;BME280;3578;51.568;6.932;2023-06-26T05:03:32;55567.59;;;-144.14;89.45
7075;BME280;3578;51.568;6.932;2023-06-26T05:05:59;55607.72;;;-144.14;89.75
7075;BME280;3578;51.568;6.932;2023-06-26T05:08:28;55639.78;;;-144.14;89.86
7075;BME280;3578;51.568;6.932;2023-06-26T05:10:55;55655.84;;;-144.14;90.23
7075;BME280;3578;51.568;6.932;2023-06-26T05:13:23;55679.91;;;-144.14;90.22
7075;BME280;3578;51.568;6.932;2023-06-26T05:15:51;55710.00;;;-144.14;89.10
7075;BME280;3578;51.568;6.932;2023-06-26T05:18:19;55730.03;;;-144.14;88.81
7075;BME280;3578;51.568;6.932;2023-06-26T05:20:47;55756.13;;;-144.14;88.28
7075;BME280;3578;51.568;6.932;2023-06-26T05:23:16;55820.28;;;-144.14;87.09
7075;BME280;3578;51.568;6.932;2023-06-26T05:25:45;55870.44;;;-144.14;85.78
7075;BME280;3578;51.568;6.932;2023-06-26T05:28:14;55872.44;;;-144.14;85.29
7075;BME280;3578;51.568;6.932;2023-06-26T05:30:41;55916.56;;;-144.14;84.42
7075;BME280;3578;51.568;6.932;2023-06-26T05:33:11;55872.44;;;-144.14;84.95
7075;BME280;3578;51.568;6.932;2023-06-26T05:35:39;55864.41;;;-144.14;85.08
7075;BME280;3578;51.568;6.932;2023-06-26T05:38:07;55888.50;;;-144.14;84.37
7075;BME280;3578;51.568;6.932;2023-06-26T05:40:36;55876.44;;;-144.14;84.72
7075;BME280;3578;51.568;6.932;2023-06-26T05:43:05;55846.38;;;-144.14;85.41
7075;BME280;3578;51.568;6.932;2023-06-26T05:45:32;55820.28;;;-144.14;86.14
7075;BME280;3578;51.568;6.932;2023-06-26T05:47:59;55832.31;;;-144.14;85.99
7075;BME280;3578;51.568;6.932;2023-06-26T05:50:28;55864.41;;;-144.14;85.29
7075;BME280;3578;51.568;6.932;2023-06-26T05:52:55;55910.53;;;-144.14;85.50
7075;BME280;3578;51.568;6.932;2023-06-26T05:55:24;56002.81;;;-144.14;85.30
7075;BME280;3578;51.568;6.932;2023-06-26T05:57:51;56060.97;;;-144.14;83.93
7075;BME280;3578;51.568;6.932;2023-06-26T06:00:21;56113.13;;;-144.14;83.08
7075;BME280;3578;51.568;6.932;2023-06-26T06:02:48;56075.00;;;-144.14;82.40
7075;BME280;3578;51.568;6.932;2023-06-26T06:05:19;56040.91;;;-144.14;82.69
7075;BME280;3578;51.568;6.932;2023-06-26T06:07:47;56028.88;;;-144.14;83.77
7075;BME280;3578;51.568;6.932;2023-06-26T06:10:14;56006.81;;;-144.14;84.90
7075;BME280;3578;51.568;6.932;2023-06-26T06:12:41;55964.69;;;-144.14;85.51
7075;BME280;3578;51.568;6.932;2023-06-26T06:15:09;55966.72;;;-144.14;85.16
7075;BME280;3578;51.568;6.932;2023-06-26T06:17:37;55952.66;;;-144.14;84.32
7075;BME280;3578;51.568;6.932;2023-06-26T06:20:05;55988.78;;;-144.14;83.71
7075;BME280;3578;51.568;6.932;2023-06-26T06:22:32;56062.97;;;-144.14;84.08
7075;BME280;3578;51.568;6.932;2023-06-26T06:24:59;56155.25;;;-144.14;83.95
7075;BME280;3578;51.568;6.932;2023-06-26T06:27:26;56135.19;;;-144.14;83.08
7075;BME280;3578;51.568;6.932;2023-06-26T06:29:53;56048.94;;;-144.14;85.08
7075;BME280;3578;51.568;6.932;2023-06-26T06:32:21;55952.66;;;-144.14;84.62
7075;BME280;3578;51.568;6.932;2023-06-26T06:34:49;55878.47;;;-144.14;85.27
7075;BME280;3578;51.568;6.932;2023-06-26T06:37:16;55898.50;;;-144.14;85.83
7075;BME280;3578;51.568;6.932;2023-06-26T06:39:43;55960.69;;;-144.14;85.82
7075;BME280;3578;51.568;6.932;2023-06-26T06:42:10;56030.88;;;-144.14;86.13
7075;BME280;3578;51.568;6.932;2023-06-26T06:44:37;56042.94;;;-144.14;85.10
7075;BME280;3578;51.568;6.932;2023-06-26T06:47:04;56083.03;;;-144.14;85.14
7075;BME280;3578;51.568;6.932;2023-06-26T06:49:31;56141.22;;;-144.14;84.30
7075;BME280;3578;51.568;6.932;2023-06-26T06:52:00;56225.44;;;-144.14;83.83
7075;BME280;3578;51.568;6.932;2023-06-26T06:54:27;56349.81;;;-144.14;82.69
7075;BME280;3578;51.568;6.932;2023-06-26T06:56:54;56458.13;;;-144.14;81.85
7075;BME280;3578;51.568;6.932;2023-06-26T06:59:21;56472.19;;;-144.14;80.78
7075;BME280;3578;51.568;6.932;2023-06-26T07:01:48;56353.81;;;-144.14;81.30
7075;BME280;3578;51.568;6.932;2023-06-26T07:04:15;56291.66;;;-144.14;82.66
7075;BME280;3578;51.568;6.932;2023-06-26T07:06:42;56271.59;;;-144.14;83.15
7075;BME280;3578;51.568;6.932;2023-06-26T07:09:10;56339.78;;;-144.14;83.56
7075;BME280;3578;51.568;6.932;2023-06-26T07:11:38;56538.38;;;-144.14;82.29
7075;BME280;3578;51.568;6.932;2023-06-26T07:14:04;56626.66;;;-144.14;81.47
7075;BME280;3578;51.568;6.932;2023-06-26T07:16:31;56716.91;;;-144.14;80.18
7075;BME280;3578;51.568;6.932;2023-06-26T07:18:58;56726.94;;;-144.14;80.25
7075;BME280;3578;51.568;6.932;2023-06-26T07:21:25;56662.75;;;-144.14;81.01
7075;BME280;3578;51.568;6.932;2023-06-26T07:23:52;56446.09;;;-144.14;81.83
7075;BME280;3578;51.568;6.932;2023-06-26T07:26:20;56438.06;;;-144.14;83.09
7075;BME280;3578;51.568;6.932;2023-06-26T07:28:48;56472.19;;;-144.14;82.13
7075;BME280;3578;51.568;6.932;2023-06-26T07:31:15;56542.38;;;-144.14;82.21
7075;BME280;3578;51.568;6.932;2023-06-26T07:33:43;56592.53;;;-144.14;81.38
7075;BME280;3578;51.568;6.932;2023-06-26T07:36:10;56608.59;;;-144.14;81.06
7075;BME280;3578;51.568;6.932;2023-06-26T07:38:37;56626.66;;;-144.14;81.03
7075;BME280;3578;51.568;6.932;2023-06-26T07:41:04;56763.06;;;-144.14;80.03
7075;BME280;3578;51.568;6.932;2023-06-26T07:43:32;56739.00;;;-144.14;80.98
7075;BME280;3578;51.568;6.932;2023-06-26T07:45:59;56720.94;;;-144.14;81.48
7075;BME280;3578;51.568;6.932;2023-06-26T07:48:26;56730.97;;;-144.14;80.69
7075;BME280;3578;51.568;6.932;2023-06-26T07:50:53;56714.91;;;-144.14;80.82
7075;BME280;3578;51.568;6.932;2023-06-26T07:53:20;56847.31;;;-144.14;80.29
7075;BME280;3578;51.568;6.932;2023-06-26T07:55:47;56889.47;;;-144.14;80.03
7075;BME280;3578;51.568;6.932;2023-06-26T07:58:14;56779.13;;;-144.14;80.82
7075;BME280;3578;51.568;6.932;2023-06-26T08:00:42;56793.16;;;-144.14;80.64
7075;BME280;3578;51.568;6.932;2023-06-26T08:03:09;56803.19;;;-144.14;78.91
7075;BME280;3578;51.568;6.932;2023-06-26T08:05:36;56797.16;;;-144.14;78.61
7075;BME280;3578;51.568;6.932;2023-06-26T08:08:03;56835.28;;;-144.14;79.56
7075;BME280;3578;51.568;6.932;2023-06-26T08:10:30;56817.22;;;-144.14;77.68
7075;BME280;3578;51.568;6.932;2023-06-26T08:12:57;56789.16;;;-144.14;77.41
7075;BME280;3578;51.568;6.932;2023-06-26T08:15:24;56825.25;;;-144.14;78.40
7075;BME280;3578;51.568;6.932;2023-06-26T08:17:53;56813.22;;;-144.14;75.86
7075;BME280;3578;51.568;6.932;2023-06-26T08:20:20;56801.19;;;-144.14;75.37
7075;BME280;3578;51.568;6.932;2023-06-26T08:22:48;56875.41;;;-144.14;74.74
7075;BME280;3578;51.568;6.932;2023-06-26T08:25:17;56975.72;;;-144.14;74.47
7075;BME280;3578;51.568;6.932;2023-06-26T08:27:43;56979.75;;;-144.14;74.68
7075;BME280;3578;51.568;6.932;2023-06-26T08:30:11;56951.66;;;-144.14;76.11
7075;BME280;3578;51.568;6.932;2023-06-26T08:32:39;56875.41;;;-144.14;76.58
7075;BME280;3578;51.568;6.932;2023-06-26T08:35:08;56847.31;;;-144.14;76.69
7075;BME280;3578;51.568;6.932;2023-06-26T08:37:35;56889.47;;;-144.14;76.08
7075;BME280;3578;51.568;6.932;2023-06-26T08:40:03;56933.59;;;-144.14;76.06
7075;BME280;3578;51.568;6.932;2023-06-26T08:42:31;56817.22;;;-144.14;76.17
7075;BME280;3578;51.568;6.932;2023-06-26T08:44:58;56797.16;;;-144.14;78.15
7075;BME280;3578;51.568;6.932;2023-06-26T08:47:25;56915.53;;;-144.14;77.50
7075;BME280;3578;51.568;6.932;2023-06-26T08:50:02;56983.75;;;-144.14;74.79
7075;BME280;3578;51.568;6.932;2023-06-26T08:52:36;57047.94;;;-144.14;72.14
7075;BME280;3578;51.568;6.932;2023-06-26T08:55:09;56927.56;;;-144.14;73.07
7075;BME280;3578;51.568;6.932;2023-06-26T08:57:37;56957.66;;;-144.14;73.59
7075;BME280;3578;51.568;6.932;2023-06-26T09:00:05;56961.69;;;-144.14;73.67
7075;BME280;3578;51.568;6.932;2023-06-26T09:02:34;56991.78;;;-144.14;72.41
7075;BME280;3578;51.568;6.932;2023-06-26T09:05:02;56913.53;;;-144.14;71.12
7075;BME280;3578;51.568;6.932;2023-06-26T09:07:30;56775.09;;;-144.14;72.62
7075;BME280;3578;51.568;6.932;2023-06-26T09:09:58;56694.84;;;-144.14;74.29
7075;BME280;3578;51.568;6.932;2023-06-26T09:12:27;56747.00;;;-144.14;72.79
7075;BME280;3578;51.568;6.932;2023-06-26T09:14:56;56728.97;;;-144.14;73.90
7075;BME280;3578;51.568;6.932;2023-06-26T09:17:25;56688.84;;;-144.14;73.84
7075;BME280;3578;51.568;6.932;2023-06-26T09:19:53;56692.84;;;-144.14;73.92
7075;BME280;3578;51.568;6.932;2023-06-26T09:22:20;56785.13;;;-144.14;72.29
7075;BME280;3578;51.568;6.932;2023-06-26T09:24:47;56851.34;;;-144.14;72.05
7075;BME280;3578;51.568;6.932;2023-06-26T09:27:16;56855.34;;;-144.14;69.05
7075;BME280;3578;51.568;6.932;2023-06-26T09:29:45;56949.66;;;-144.14;71.17
7075;BME280;3578;51.568;6.932;2023-06-26T09:32:13;57031.91;;;-144.14;71.38
7075;BME280;3578;51.568;6.932;2023-06-26T09:34:42;56895.47;;;-144.14;68.04
7075;BME280;3578;51.568;6.932;2023-06-26T09:37:12;56779.13;;;-144.14;69.18
7075;BME280;3578;51.568;6.932;2023-06-26T09:39:39;56755.03;;;-144.14;69.13
7075;BME280;3578;51.568;6.932;2023-06-26T09:42:07;56885.44;;;-144.14;70.39
7075;BME280;3578;51.568;6.932;2023-06-26T09:44:37;56831.28;;;-144.14;71.64
7075;BME280;3578;51.568;6.932;2023-06-26T09:47:10;56837.28;;;-144.14;71.83
7075;BME280;3578;51.568;6.932;2023-06-26T09:49:37;56714.91;;;-144.14;68.26
7075;BME280;3578;51.568;6.932;2023-06-26T09:52:07;56718.94;;;-144.14;69.63
7075;BME280;3578;51.568;6.932;2023-06-26T09:54:34;56781.13;;;-144.14;68.78
7075;BME280;3578;51.568;6.932;2023-06-26T09:57:08;56853.34;;;-144.14;66.68
7075;BME280;3578;51.568;6.932;2023-06-26T09:59:37;56957.66;;;-144.14;63.83
7075;BME280;3578;51.568;6.932;2023-06-26T10:02:04;57043.94;;;-144.14;59.54
7075;BME280;3578;51.568;6.932;2023-06-26T10:04:31;57160.31;;;-144.14;57.39
7075;BME280;3578;51.568;6.932;2023-06-26T10:07:02;57220.50;;;-144.14;56.97
7075;BME280;3578;51.568;6.932;2023-06-26T10:09:31;57274.69;;;-144.14;54.00
7075;BME280;3578;51.568;6.932;2023-06-26T10:12:02;57312.81;;;-144.14;53.17
7075;BME280;3578;51.568;6.932;2023-06-26T10:14:37;57310.78;;;-144.14;54.62
7075;BME280;3578;51.568;6.932;2023-06-26T10:17:10;57270.66;;;-144.14;54.73
7075;BME280;3578;51.568;6.932;2023-06-26T10:19:41;57373.00;;;-144.14;52.73
7075;BME280;3578;51.568;6.932;2023-06-26T10:22:12;57405.09;;;-144.14;50.70
7075;BME280;3578;51.568;6.932;2023-06-26T10:24:42;57401.09;;;-144.14;50.71
7075;BME280;3578;51.568;6.932;2023-06-26T10:27:14;57421.16;;;-144.14;51.35
7075;BME280;3578;51.568;6.932;2023-06-26T10:29:46;57535.53;;;-144.14;50.51
7075;BME280;3578;51.568;6.932;2023-06-26T10:32:15;57593.72;;;-144.14;51.72
7075;BME280;3578;51.568;6.932;2023-06-26T10:34:44;57690.03;;;-144.14;52.42
7075;BME280;3578;51.568;6.932;2023-06-26T10:37:12;57479.34;;;-144.14;52.21
7075;BME280;3578;51.568;6.932;2023-06-26T10:39:47;57393.06;;;-144.14;53.94
7075;BME280;3578;51.568;6.932;2023-06-26T10:42:15;57302.78;;;-144.14;54.56
7075;BME280;3578;51.568;6.932;2023-06-26T10:44:45;57148.28;;;-144.14;56.00
7075;BME280;3578;51.568;6.932;2023-06-26T10:47:29;57039.94;;;-144.14;59.54
7075;BME280;3578;51.568;6.932;2023-06-26T10:50:16;57033.91;;;-144.14;58.29
7075;BME280;3578;51.568;6.932;2023-06-26T10:52:43;57110.16;;;-144.14;57.02
7075;BME280;3578;51.568;6.932;2023-06-26T10:55:11;57150.28;;;-144.14;54.02
7075;BME280;3578;51.568;6.932;2023-06-26T10:57:38;57096.09;;;-144.14;55.92
7075;BME280;3578;51.568;6.932;2023-06-26T11:00:15;57096.09;;;-144.14;56.45
7075;BME280;3578;51.568;6.932;2023-06-26T11:02:48;57230.53;;;-144.14;59.06
7075;BME280;3578;51.568;6.932;2023-06-26T11:05:25;57248.59;;;-144.14;51.63
7075;BME280;3578;51.568;6.932;2023-06-26T11:08:06;57198.44;;;-144.14;49.32
7075;BME280;3578;51.568;6.932;2023-06-26T11:11:00;57168.34;;;-144.14;50.26
7075;BME280;3578;51.568;6.932;2023-06-26T11:13:27;57228.53;;;-144.14;48.74
7075;BME280;3578;51.568;6.932;2023-06-26T11:15:56;57206.47;;;-144.14;48.27
7075;BME280;3578;51.568;6.932;2023-06-26T11:18:24;57196.44;;;-144.14;48.58
7075;BME280;3578;51.568;6.932;2023-06-26T11:20:51;57248.59;;;-144.14;47.75
7075;BME280;3578;51.568;6.932;2023-06-26T11:23:22;57180.38;;;-144.14;47.55
7075;BME280;3578;51.568;6.932;2023-06-26T11:25:50;57212.47;;;-144.14;47.29
7075;BME280;3578;51.568;6.932;2023-06-26T11:28:17;57188.41;;;-144.14;46.48
7075;BME280;3578;51.568;6.932;2023-06-26T11:30:44;57148.28;;;-144.14;47.32
7075;BME280;3578;51.568;6.932;2023-06-26T11:33:12;57136.22;;;-144.14;47.13
7075;BME280;3578;51.568;6.932;2023-06-26T11:35:39;57188.41;;;-144.14;46.82
7075;BME280;3578;51.568;6.932;2023-06-26T11:38:06;57268.66;;;-144.14;46.84
7075;BME280;3578;51.568;6.932;2023-06-26T11:40:35;57314.81;;;-144.14;45.14
7075;BME280;3578;51.568;6.932;2023-06-26T11:43:03;57312.81;;;-144.14;44.77
7075;BME280;3578;51.568;6.932;2023-06-26T11:45:31;57292.72;;;-144.14;43.99
7075;BME280;3578;51.568;6.932;2023-06-26T11:48:00;57280.69;;;-144.14;43.03
7075;BME280;3578;51.568;6.932;2023-06-26T11:50:28;57288.72;;;-144.14;42.98
7075;BME280;3578;51.568;6.932;2023-06-26T11:52:56;57332.88;;;-144.14;41.62
7075;BME280;3578;51.568;6.932;2023-06-26T11:55:25;57385.03;;;-144.14;42.43
7075;BME280;3578;51.568;6.932;2023-06-26T11:57:55;57493.38;;;-144.14;42.25
7075;BME280;3578;51.568;6.932;2023-06-26T12:00:23;57497.41;;;-144.14;42.29
7075;BME280;3578;51.568;6.932;2023-06-26T12:02:50;57461.28;;;-144.14;41.73
7075;BME280;3578;51.568;6.932;2023-06-26T12:05:18;57437.19;;;-144.14;39.36
7075;BME280;3578;51.568;6.932;2023-06-26T12:07:47;57328.84;;;-144.14;39.37
7075;BME280;3578;51.568;6.932;2023-06-26T12:10:15;57332.88;;;-144.14;41.16
7075;BME280;3578;51.568;6.932;2023-06-26T12:12:43;57425.16;;;-144.14;39.60
7075;BME280;3578;51.568;6.932;2023-06-26T12:15:15;57473.31;;;-144.14;40.94
7075;BME280;3578;51.568;6.932;2023-06-26T12:17:42;57485.38;;;-144.14;38.07
7075;BME280;3578;51.568;6.932;2023-06-26T12:20:18;57521.47;;;-144.14;37.45
7075;BME280;3578;51.568;6.932;2023-06-26T12:22:47;57577.66;;;-144.14;37.55
7075;BME280;3578;51.568;6.932;2023-06-26T12:25:15;57665.97;;;-144.14;36.75
7075;BME280;3578;51.568;6.932;2023-06-26T12:27:45;57611.78;;;-144.14;36.26
7075;BME280;3578;51.568;6.932;2023-06-26T12:30:13;57543.56;;;-144.14;36.80
7075;BME280;3578;51.568;6.932;2023-06-26T12:32:43;57461.28;;;-144.14;37.95
7075;BME280;3578;51.568;6.932;2023-06-26T12:35:10;57437.19;;;-144.14;38.41
7075;BME280;3578;51.568;6.932;2023-06-26T12:37:38;57609.78;;;-144.14;39.92
7075;BME280;3578;51.568;6.932;2023-06-26T12:40:16;57700.06;;;-144.14;38.82
7075;BME280;3578;51.568;6.932;2023-06-26T12:42:45;57698.06;;;-144.14;39.40
7075;BME280;3578;51.568;6.932;2023-06-26T12:45:14;57742.22;;;-144.14;39.17
7075;BME280;3578;51.568;6.932;2023-06-26T12:47:41;57740.22;;;-144.14;39.38
7075;BME280;3578;51.568;6.932;2023-06-26T12:50:09;57688.03;;;-144.14;37.89
7075;BME280;3578;51.568;6.932;2023-06-26T12:52:36;57489.38;;;-144.14;38.23
7075;BME280;3578;51.568;6.932;2023-06-26T12:55:03;57463.28;;;-144.14;38.67
7075;BME280;3578;51.568;6.932;2023-06-26T12:57:33;57326.84;;;-144.14;37.59
7075;BME280;3578;51.568;6.932;2023-06-26T13:00:00;57344.91;;;-144.14;38.28
7075;BME280;3578;51.568;6.932;2023-06-26T13:02:27;57256.63;;;-144.14;36.32
7075;BME280;3578;51.568;6.932;2023-06-26T13:04:54;57174.34;;;-144.14;35.91